• Join FlightAware (Why Join?)
  • Login
  • US Flag 
07:11PM EST


 

Airport Tracker/Info


-or-


 

Live Flight TrackerFlight Track Log ✈ ASH3770 ✈ 07-May-2013 ✈ KORD - KBDL

Flight Track Log - Related Links

Times and Time Zones

All times are in EDT time to prevent confusion due to time zone crossing. See the ASH3770 flight status page for this flight to view local times or setup timezone preferences in your user account.

Time Position Orientation Groundspeed Altitude Reporting Facility
EDT Latitude Longitude Course Direction KTS MPH feet Rate Location/Type
10:12PM 42.0047 -87.8875 61° Northeast 152 175 39,000  Level Chicago Center
10:13PM 42.0281 -87.8317 61° Northeast 181 208 3,900 -16,140 Descending Chicago Center
10:14PM 42.0472 -87.7464 73° East 228 262 6,000 2,640 Climbing Chicago Center
10:15PM 42.0553 -87.6428 84° East 275 316 9,300 2,940 Climbing Chicago Center
10:16PM 42.0656 -87.5372 82° East 283 326 12,000 2,460 Climbing Chicago Center
10:17PM 42.0736 -87.4261 84° East 296 341 14,400 1,800 Climbing Chicago Center
10:18PM 42.0783 -87.2906 87° East 361 415 15,700 1,560 Climbing Chicago Center
10:19PM 42.0825 -87.1483 88° East 378 435 17,600 1,980 Climbing Chicago Center
10:20PM 42.0883 -86.9725 87° East 393 452 19,800 1,920 Climbing Chicago Center
10:21PM 42.0936 -86.8197 87° East 407 468 21,600 1,620 Climbing Chicago Center
10:22PM 42.0964 -86.6783 88° East 412 474 23,200 1,560 Climbing Chicago Center
10:23PM 42.1011 -86.5217 88° East 419 482 24,800 1,260 Climbing Chicago Center
10:24PM 42.1058 -86.3606 88° East 428 493 25,800 1,140 Climbing Chicago Center
10:25PM 42.1097 -86.1958 88° East 437 503 27,200 1,380 Climbing Chicago Center
10:26PM 42.1147 -86.0317 88° East 439 505 28,700 1,560 Climbing Chicago Center
10:27PM 42.1181 -85.8514 89° East 432 497 30,400 1,800 Climbing Chicago Center
10:28PM 42.1214 -85.6956 88° East 422 486 32,400 1,500 Climbing Chicago Center
10:29PM 42.1250 -85.5433 88° East 412 474 33,500 1,140 Climbing Chicago Center
10:30PM 42.1269 -85.3903 89° East 411 473 34,800 1,140 Climbing Chicago Center
10:31PM 42.1317 -85.3072 86° East 412 474 35,200 900 Climbing Cleveland Center
10:32PM 42.1336 -85.1533 89° East 412 474 36,100 840 Climbing Cleveland Center
10:33PM 42.1356 -84.9994 89° East 412 474 36,900 780 Climbing Cleveland Center
10:34PM 42.1333 -84.8397 91° East 412 474 37,700 660 Climbing Cleveland Center
10:35PM 42.1283 -84.6881 92° East 412 474 38,300 540 Climbing Cleveland Center
10:36PM 42.1256 -84.5311 91° East 412 474 38,800 300 Climbing Cleveland Center
10:37PM 42.1317 -84.4081 86° East 412 474 39,000 60 Climbing Cleveland Center
10:38PM 42.1478 -84.2383 83° East 412 474 39,000  Level Cleveland Center
10:39PM 42.1653 -84.0739 82° East 422 486 39,000  Level Cleveland Center
10:40PM 42.1825 -83.9178 81° East 427 491 39,000  Level Cleveland Center
10:41PM 42.1994 -83.7617 82° East 427 491 39,000  Level Cleveland Center
10:42PM 42.2164 -83.6000 82° East 430 495 39,000  Level Cleveland Center
10:43PM 42.2272 -83.4211 85° East 430 495 39,000  Level Cleveland Center
10:44PM 42.2289 -83.2639 89° East 423 487 39,000  Level Cleveland Center
10:45PM 42.2300 -83.1211 89° East 423 487 39,000  Level Cleveland Center
10:46PM 42.2317 -82.9417 89° East 423 487 39,000  Level Cleveland Center
10:47PM 42.2328 -82.7844 89° East 423 487 39,000  Level Cleveland Center
10:48PM 42.2317 -82.6219 90° East 423 487 39,000  Level Cleveland Center
10:49PM 42.2342 -82.4650 89° East 418 481 39,000  Level Cleveland Center
10:50PM 42.2325 -82.3050 91° East 418 481 39,000  Level Cleveland Center
10:51PM 42.2328 -82.1481 90° East 418 481 39,000  Level Cleveland Center
10:52PM 42.2328 -81.9908 90° East 418 481 39,000  Level Cleveland Center
10:53PM 42.2325 -81.8311 90° East 423 487 39,000  Level Cleveland Center
10:54PM 42.2300 -81.6683 91° East 423 487 39,000  Level Cleveland Center
10:55PM 42.2314 -81.5114 89° East 423 487 39,000  Level Cleveland Center
10:56PM 42.2306 -81.3486 90° East 423 487 39,000  Level Cleveland Center
10:57PM 42.2294 -81.1889 90° East 423 487 39,000  Level Cleveland Center
10:58PM 42.2281 -81.0317 91° East 421 484 39,000  Level Cleveland Center
10:59PM 42.2242 -80.8917 92° East 421 484 39,000  Level Cleveland Center
11:00PM 42.2331 -80.7289 86° East 421 484 39,000  Level Cleveland Center
11:01PM 42.2414 -80.5719 86° East 421 484 39,000  Level Cleveland Center
11:02PM 42.2517 -80.4119 85° East 421 484 39,000  Level Cleveland Center
11:03PM 42.2639 -80.2522 84° East 426 490 39,000  Level Cleveland Center
11:04PM 42.2717 -80.0922 86° East 426 490 39,000  Level Cleveland Center
11:05PM 42.2833 -79.9347 84° East 426 490 39,000  Level Cleveland Center
11:06PM 42.2906 -79.7719 87° East 426 490 39,000  Level Cleveland Center
11:07PM 42.3019 -79.6147 84° East 426 490 39,000  Level Cleveland Center
11:08PM 42.3108 -79.4517 86° East 426 490 39,000  Level Cleveland Center
11:09PM 42.3197 -79.2914 86° East 421 484 39,000  Level Cleveland Center
11:10PM 42.3261 -79.1311 87° East 421 484 39,000  Level Cleveland Center
11:11PM 42.3364 -78.9736 85° East 421 484 39,000  Level Cleveland Center
11:12PM 42.3444 -78.8133 86° East 426 490 39,000  Level Cleveland Center
11:13PM 42.3525 -78.6558 86° East 426 490 39,000 -240 Level Cleveland Center
11:14PM 42.3600 -78.4981 86° East 426 490 38,600 -720 Descending Cleveland Center
11:15PM 42.3694 -78.3347 85° East 426 490 37,600 -1,020 Descending Cleveland Center
11:16PM 42.3747 -78.1772 87° East 426 490 36,600 -1,020 Descending Cleveland Center
11:17PM 42.3817 -78.0167 87° East 426 490 35,600 -840 Descending Cleveland Center
11:18PM 42.3883 -77.8533 87° East 426 490 35,000 -240 Descending Cleveland Center
11:20PM 42.4000 -77.5047 87° East 420 483 35,000  Level Boston Center
11:21PM 42.4069 -77.3450 87° East 420 483 35,000  Level Boston Center
11:22PM 42.4117 -77.1850 88° East 420 483 35,000  Level Boston Center
11:23PM 42.4183 -77.0250 87° East 420 483 35,000  Level Boston Center
11:24PM 42.4247 -76.8653 87° East 420 483 35,000  Level Boston Center
11:25PM 42.4289 -76.7022 88° East 420 483 35,000  Level Boston Center
11:26PM 42.4347 -76.5422 87° East 420 483 35,000  Level Boston Center
11:27PM 42.4403 -76.3822 87° East 420 483 35,000  Level Boston Center
11:28PM 42.4433 -76.2331 88° East 420 483 35,000  Level Boston Center
11:29PM 42.4444 -76.0700 89° East 420 483 35,000 -780 Level Boston Center
11:30PM 42.4372 -75.9064 93° East 425 489 33,500 -1,500 Descending Boston Center
11:31PM 42.4297 -75.7342 93° East 432 497 32,100 -1,500 Descending Boston Center
11:32PM 42.4197 -75.5706 95° East 442 509 30,500 -1,500 Descending Boston Center
11:33PM 42.4139 -75.4014 93° East 442 509 28,900 -1,620 Descending Boston Center
11:34PM 42.4042 -75.2097 94° East 437 503 27,000 -1,740 Descending Boston Center
11:35PM 42.3933 -75.0461 95° East 432 497 25,500 -1,500 Descending Boston Center
11:36PM 42.3886 -74.8858 92° East 432 497 24,000 -1,500 Descending Boston Center
11:37PM 42.3794 -74.7225 94° East 432 497 22,500 -1,500 Descending Boston Center
11:38PM 42.3719 -74.5703 94° East 422 486 21,000 -1,500 Descending Boston Center
11:39PM 42.3622 -74.4211 95° East 410 472 19,600 -1,500 Descending Boston Center
11:40PM 42.3506 -74.2436 95° East 415 478 18,100 -1,260 Descending Boston Center
11:41PM 42.3442 -74.1169 94° East 395 455 17,100 -1,140 Descending Boston Center
11:42PM 42.3339 -73.9594 95° East 389 448 15,900 -1,140 Descending Boston Center
11:43PM 42.3250 -73.8358 96° East 382 440 14,900 -1,080 Descending Boston Center
11:44PM 42.3200 -73.7344 94° East 374 430 14,200 -1,140 Descending Boston Center
11:44PM 42.3164 -73.6867 96° East 372 428 13,800 -1,020 Descending Boston Center
11:44PM 42.3089 -73.6136 98° East 363 418 13,300 -1,020 Descending Boston Center
11:45PM 42.3075 -73.5544 92° East 360 414 12,800 -1,020 Descending Boston Center
11:46PM 42.2997 -73.4814 98° East 357 411 12,300 -1,020 Descending Boston Center
11:46PM 42.2983 -73.4225 92° East 355 409 11,800 -1,020 Descending Boston Center
11:47PM 42.2925 -73.3467 96° East 354 407 11,300 -840 Descending Boston Center
11:47PM 42.2889 -73.3017 96° East 350 403 11,000 -300 Descending Boston Center
11:48PM 42.2728 -73.2228 105° East 339 390 11,000  Level Boston Center
11:48PM 42.2667 -73.1667 98° East 344 396 11,000  Level Boston Center
11:48PM 42.2525 -73.1106 109° East 338 389 11,000 -300 Level Boston Center
11:49PM 42.2444 -73.0569 101° East 337 388 10,700 -840 Descending Boston Center
11:49PM 42.2322 -72.9953 105° East 316 364 10,200 -1,200 Descending Boston Center
11:50PM 42.2242 -72.9392 101° East 309 356 9,500 -1,380 Descending Boston Center
11:50PM 42.2139 -72.8942 107° East 269 310 8,800 -1,500 Descending Boston Center
11:51PM 42.2100 -72.8550 98° East 268 308 8,000 -1,740 Descending Boston Center
11:51PM 42.1978 -72.8017 107° East 258 297 7,100 -1,740 Descending Boston Center
11:52PM 42.1917 -72.7539 100° East 246 283 6,300 -1,440 Descending Boston Center
11:52PM 42.1853 -72.7203 104° East 244 281 5,800 -1,200 Descending Boston Center
11:53PM 42.1731 -72.6725 109° East 228 262 5,100 -1,320 Descending Boston Center
11:53PM 42.1583 -72.6531 136° Southeast 210 242 4,500 -1,440 Descending Boston Center
11:54PM 42.1419 -72.6219 125° Southeast 199 229 3,700 -1,380 Descending Boston Center
11:54PM 42.1253 -72.5942 129° Southeast 177 204 3,100 -1,200 Descending Boston Center
11:55PM 42.1086 -72.5744 139° Southeast 173 199 2,500 -900 Descending Boston Center
11:55PM 42.0897 -72.5717 174° South 163 188 2,300 -420 Descending Boston Center
11:56PM 42.0669 -72.5714 179° South 158 182 2,100 -240 Descending Boston Center
11:56PM 42.0461 -72.5742 186° South 163 188 2,100  Level Boston Center
11:57PM 42.0211 -72.5853 198° South 158 182 2,100  Level Boston Center
11:57PM 42.0086 -72.5939 207° Southwest 154 177 2,100 -300 Level Boston Center
11:58PM 41.9917 -72.6189 228° Southwest 149 171 1,800 -600 Descending Boston Center
11:58PM 41.9856 -72.6272 225° Southwest 127 146 1,500 -960 Descending Boston Center
11:59PM 41.9583 -72.6606 222° Southwest 124 143 600 -900 Descending Boston Center